Time;durP1;ratioP1;P1;durP2;ratioP2;P2;SDS_P1;SDS_P2;PMS_P1;PMS_P2;Temp;Humidity;BMP_temperature;BMP_pressure;BME280_temperature;BME280_humidity;BME280_pressure;Samples;Min_cycle;Max_cycle;Signal;HPM_P1;HPM_P2
2021/05/31 00:00:16;;;;;;;4.77;4.30;;;14.90;99.90;;;;;;5028287;28;20413;-36
2021/05/31 00:02:44;;;;;;;5.80;4.80;;;14.70;99.90;;;;;;5026323;28;20510;-36
2021/05/31 00:05:11;;;;;;;5.67;5.10;;;14.70;99.90;;;;;;5026038;28;20803;-36
2021/05/31 00:07:37;;;;;;;5.00;4.50;;;14.60;99.90;;;;;;5030267;28;20460;-36
2021/05/31 00:10:05;;;;;;;6.50;5.60;;;14.60;99.90;;;;;;5033124;28;20482;-36
2021/05/31 00:12:32;;;;;;;7.57;5.17;;;14.50;99.90;;;;;;5026324;28;20468;-36
2021/05/31 00:14:57;;;;;;;5.77;5.27;;;14.40;99.90;;;;;;5041121;28;20478;-36
2021/05/31 00:17:25;;;;;;;5.60;5.10;;;14.40;99.90;;;;;;5046235;28;20728;-36
2021/05/31 00:19:51;;;;;;;8.10;5.40;;;14.50;99.90;;;;;;5045434;28;20205;-36
2021/05/31 00:22:20;;;;;;;5.23;4.73;;;14.30;99.90;;;;;;5038350;28;20449;-36
2021/05/31 00:24:47;;;;;;;5.37;4.87;;;14.40;99.90;;;;;;5036062;28;20416;-37
2021/05/31 00:27:14;;;;;;;5.67;5.07;;;14.30;99.90;;;;;;5036525;28;20433;-36
2021/05/31 00:29:40;;;;;;;5.20;4.80;;;14.30;99.90;;;;;;5031504;28;20432;-36
2021/05/31 00:32:06;;;;;;;4.60;4.03;;;14.30;99.90;;;;;;5029706;28;20731;-36
2021/05/31 00:34:32;;;;;;;5.10;4.60;;;14.40;99.90;;;;;;5030248;28;20194;-36
2021/05/31 00:36:58;;;;;;;5.13;4.63;;;14.40;99.90;;;;;;5033108;28;20618;-36
2021/05/31 00:39:23;;;;;;;5.90;4.80;;;14.30;99.90;;;;;;5041255;28;20274;-36
2021/05/31 00:41:51;;;;;;;6.83;5.00;;;14.30;99.90;;;;;;5032406;28;20198;-36
2021/05/31 00:44:18;;;;;;;5.97;5.10;;;14.30;99.90;;;;;;5032254;28;20190;-36
2021/05/31 00:46:44;;;;;;;5.63;4.93;;;14.30;99.90;;;;;;5040338;28;20428;-36
2021/05/31 00:49:09;;;;;;;6.90;4.90;;;14.20;99.90;;;;;;5029146;28;20413;-36
2021/05/31 00:51:35;;;;;;;5.07;4.57;;;14.10;99.90;;;;;;5036640;28;20305;-36
2021/05/31 00:54:01;;;;;;;5.50;5.00;;;14.00;99.90;;;;;;5035384;28;20173;-36
2021/05/31 00:56:27;;;;;;;6.67;5.60;;;13.80;99.90;;;;;;5033432;28;20417;-36
2021/05/31 00:58:53;;;;;;;5.70;5.20;;;13.80;99.90;;;;;;5028754;28;20779;-36
2021/05/31 01:01:21;;;;;;;6.10;5.33;;;13.70;99.90;;;;;;5037102;28;20236;-36
2021/05/31 01:03:47;;;;;;;5.40;4.90;;;13.60;99.90;;;;;;5029067;28;20548;-37
2021/05/31 01:06:17;;;;;;;6.43;5.53;;;13.50;99.90;;;;;;5032985;28;20905;-37
2021/05/31 01:09:09;;;;;;;5.43;4.47;;;13.50;99.90;;;;;;5043061;28;20201;-37
2021/05/31 01:11:59;;;;;;;4.90;4.03;;;13.40;99.90;;;;;;5048655;28;20416;-37
2021/05/31 01:14:35;;;;;;;5.63;4.93;;;13.30;99.90;;;;;;5039809;28;20420;-37
2021/05/31 01:17:08;;;;;;;7.23;5.90;;;13.20;99.90;;;;;;5048085;28;20915;-37
2021/05/31 01:19:37;;;;;;;5.67;5.13;;;13.10;99.90;;;;;;5046926;28;20915;-37
2021/05/31 01:22:08;;;;;;;6.23;5.63;;;13.00;99.90;;;;;;5045764;28;20475;-37
2021/05/31 01:24:51;;;;;;;5.90;5.30;;;13.00;99.90;;;;;;5044482;28;20424;-37
2021/05/31 01:27:46;;;;;;;6.47;4.63;;;12.90;99.90;;;;;;5037585;28;20995;-37
2021/05/31 01:30:15;;;;;;;6.00;5.20;;;12.90;99.90;;;;;;5028062;28;20516;-36
2021/05/31 01:32:47;;;;;;;6.63;6.03;;;12.90;99.90;;;;;;5029148;28;20461;-36
2021/05/31 01:35:34;;;;;;;8.80;5.90;;;12.90;99.90;;;;;;5027247;28;20456;-37
2021/05/31 01:38:01;;;;;;;6.57;5.80;;;13.00;99.90;;;;;;5030528;28;20476;-37
2021/05/31 01:40:28;;;;;;;8.80;7.67;;;12.90;99.90;;;;;;5043513;28;20510;-36
2021/05/31 01:42:57;;;;;;;7.23;6.53;;;13.00;99.90;;;;;;5028850;28;20421;-37
2021/05/31 01:45:23;;;;;;;10.10;7.30;;;13.00;99.90;;;;;;5036963;28;20456;-37
2021/05/31 01:47:50;;;;;;;8.37;6.93;;;13.00;99.90;;;;;;5029086;28;20431;-37
2021/05/31 01:50:16;;;;;;;8.07;7.10;;;13.00;99.90;;;;;;5027946;28;20465;-36
2021/05/31 01:52:45;;;;;;;8.57;7.77;;;13.10;99.90;;;;;;5037557;28;20567;-37
2021/05/31 01:55:13;;;;;;;8.50;7.23;;;13.00;99.90;;;;;;5040903;28;20486;-36
2021/05/31 01:57:41;;;;;;;9.43;7.77;;;13.00;99.90;;;;;;5028710;28;20417;-37
2021/05/31 02:00:09;;;;;;;8.40;7.47;;;13.00;99.90;;;;;;5032634;28;20793;-37
2021/05/31 02:02:36;;;;;;;7.60;6.80;;;13.00;99.90;;;;;;5029593;28;20428;-37
2021/05/31 02:05:05;;;;;;;7.90;7.03;;;13.00;99.90;;;;;;5028626;28;20516;-37
2021/05/31 02:07:30;;;;;;;8.53;7.57;;;13.00;99.90;;;;;;5034925;28;20470;-36
2021/05/31 02:09:56;;;;;;;8.10;7.30;;;13.00;99.90;;;;;;5038134;28;20507;-36
2021/05/31 02:12:26;;;;;;;12.07;7.83;;;12.90;99.90;;;;;;5039432;28;20688;-37
2021/05/31 02:15:00;;;;;;;9.63;7.30;;;12.90;99.90;;;;;;5042297;28;20257;-36
2021/05/31 02:18:03;;;;;;;8.10;7.30;;;12.90;99.90;;;;;;5048119;28;20674;-37
2021/05/31 02:20:30;;;;;;;9.80;7.33;;;12.90;99.90;;;;;;5025632;28;20432;-37
2021/05/31 02:23:01;;;;;;;10.10;7.60;;;12.90;99.90;;;;;;5046548;28;20853;-37
2021/05/31 02:25:27;;;;;;;8.10;7.30;;;12.90;99.90;;;;;;5034905;28;20425;-37
2021/05/31 02:27:54;;;;;;;12.10;7.23;;;13.00;99.90;;;;;;5045369;28;20420;-36
2021/05/31 02:30:22;;;;;;;12.60;7.30;;;13.00;99.90;;;;;;5027161;28;20444;-37
2021/05/31 02:33:02;;;;;;;7.97;7.17;;;13.10;99.90;;;;;;5041691;28;20713;-37
2021/05/31 02:35:31;;;;;;;8.23;6.57;;;13.20;99.90;;;;;;5047695;28;20416;-37
2021/05/31 02:38:02;;;;;;;12.40;7.70;;;13.20;99.90;;;;;;5046003;28;20432;-36
2021/05/31 02:40:28;;;;;;;8.37;7.40;;;13.10;99.90;;;;;;5045546;28;20841;-36
2021/05/31 02:42:57;;;;;;;9.33;8.37;;;13.20;99.90;;;;;;5029346;28;20420;-37
2021/05/31 02:45:25;;;;;;;9.63;8.17;;;13.20;99.90;;;;;;5046300;28;20832;-37
2021/05/31 02:47:52;;;;;;;7.40;6.60;;;13.30;99.90;;;;;;5028693;28;20417;-37
2021/05/31 02:50:18;;;;;;;11.10;8.47;;;13.20;99.90;;;;;;5026446;28;20425;-37
2021/05/31 02:52:44;;;;;;;9.17;8.10;;;13.20;99.90;;;;;;5027888;28;20468;-36
2021/05/31 02:55:16;;;;;;;10.57;8.60;;;13.20;99.90;;;;;;5037522;28;20417;-37
2021/05/31 02:57:42;;;;;;;11.80;7.93;;;13.20;99.90;;;;;;5035940;28;20418;-37
2021/05/31 03:00:11;;;;;;;8.60;7.80;;;13.20;99.90;;;;;;5026247;28;20436;-37
2021/05/31 03:02:37;;;;;;;8.93;7.83;;;13.20;99.90;;;;;;5035607;28;20421;-36
2021/05/31 03:05:08;;;;;;;9.03;8.13;;;13.10;99.90;;;;;;5026594;28;20417;-37
2021/05/31 03:07:33;;;;;;;8.33;7.53;;;13.20;99.90;;;;;;5028132;28;20492;-37
2021/05/31 03:09:59;;;;;;;9.13;8.20;;;13.10;99.90;;;;;;5038891;28;20420;-37
2021/05/31 03:12:25;;;;;;;9.80;7.80;;;13.00;99.90;;;;;;5034622;28;20237;-37
2021/05/31 03:14:51;;;;;;;8.33;7.53;;;12.90;99.90;;;;;;5041756;28;20189;-37
2021/05/31 03:17:19;;;;;;;8.43;7.50;;;12.80;99.90;;;;;;5038873;28;20414;-37
2021/05/31 03:19:45;;;;;;;8.87;7.30;;;12.70;99.90;;;;;;5025800;28;20455;-37
2021/05/31 03:22:11;;;;;;;9.50;8.50;;;12.50;99.90;;;;;;5027000;28;20552;-37
2021/05/31 03:24:36;;;;;;;10.73;7.87;;;12.40;99.90;;;;;;5039721;28;21043;-37
2021/05/31 03:27:03;;;;;;;8.33;7.40;;;12.30;99.90;;;;;;5015539;28;20343;-37
2021/05/31 03:29:29;;;;;;;9.97;7.70;;;12.20;99.90;;;;;;5024914;28;20329;-37
2021/05/31 03:31:55;;;;;;;10.00;7.20;;;12.10;99.90;;;;;;5026224;28;20463;-37
2021/05/31 03:34:21;;;;;;;11.57;7.13;;;12.00;99.90;;;;;;5026672;28;20444;-37
2021/05/31 03:36:46;;;;;;;9.03;8.10;;;12.00;99.90;;;;;;5026572;28;20417;-37
2021/05/31 03:39:12;;;;;;;11.07;7.53;;;11.90;99.90;;;;;;5026998;28;20436;-37
2021/05/31 03:41:38;;;;;;;10.40;8.30;;;11.90;99.90;;;;;;5032995;28;20182;-37
2021/05/31 03:44:04;;;;;;;8.70;7.90;;;12.00;99.90;;;;;;5026691;28;20205;-37
2021/05/31 03:46:29;;;;;;;8.73;7.20;;;12.00;99.90;;;;;;5030375;28;20186;-37
2021/05/31 03:48:55;;;;;;;9.43;7.80;;;11.90;99.90;;;;;;5030819;28;20471;-37
2021/05/31 03:51:21;;;;;;;10.00;8.60;;;12.00;99.90;;;;;;5026217;28;20201;-37
2021/05/31 03:53:47;;;;;;;11.00;8.67;;;12.00;99.90;;;;;;5034181;28;20237;-37
2021/05/31 03:56:13;;;;;;;9.30;8.20;;;12.00;99.90;;;;;;5029249;28;20197;-37
2021/05/31 03:58:40;;;;;;;8.70;7.80;;;12.00;99.90;;;;;;5029758;28;20178;-36
2021/05/31 04:01:07;;;;;;;11.70;8.03;;;12.00;99.90;;;;;;5026036;28;20988;-37
2021/05/31 04:03:34;;;;;;;13.67;9.30;;;12.00;99.90;;;;;;5033188;28;20974;-37
2021/05/31 04:06:18;;;;;;;9.40;8.40;;;12.00;99.90;;;;;;5030651;28;20421;-37
2021/05/31 04:11:36;;;;;;;10.60;8.30;;;12.00;99.90;;;;;;5043360;28;20423;-37
2021/05/31 04:14:10;;;;;;;8.10;7.40;;;12.10;99.90;;;;;;5046758;28;20429;-37
2021/05/31 04:16:38;;;;;;;7.60;6.73;;;12.10;99.90;;;;;;5046613;28;20431;-37
2021/05/31 04:19:06;;;;;;;8.87;7.97;;;12.00;99.90;;;;;;5029432;28;20616;-37
2021/05/31 04:21:32;;;;;;;10.20;8.30;;;12.00;99.90;;;;;;5030228;28;20431;-37
2021/05/31 04:23:58;;;;;;;11.17;8.40;;;12.10;99.90;;;;;;5031980;28;20873;-37
2021/05/31 04:26:24;;;;;;;9.60;8.70;;;12.20;99.90;;;;;;5038519;28;20421;-37
2021/05/31 04:28:50;;;;;;;10.33;8.70;;;12.30;99.90;;;;;;5034077;28;20471;-37
2021/05/31 04:31:16;;;;;;;10.63;9.43;;;12.30;99.90;;;;;;5028809;28;20487;-37
2021/05/31 04:33:43;;;;;;;9.97;8.60;;;12.50;99.90;;;;;;5039279;28;20468;-36
2021/05/31 04:36:08;;;;;;;10.97;9.00;;;12.50;99.90;;;;;;5029775;28;20460;-37
2021/05/31 04:38:34;;;;;;;8.00;7.20;;;12.70;99.90;;;;;;5029492;28;20457;-37
2021/05/31 04:41:00;;;;;;;9.77;8.67;;;12.80;99.90;;;;;;5038676;28;20186;-36
2021/05/31 04:43:26;;;;;;;11.07;8.07;;;12.80;99.90;;;;;;5040495;28;20186;-36
2021/05/31 04:45:52;;;;;;;11.30;9.20;;;12.90;99.90;;;;;;5029938;28;20202;-37
2021/05/31 04:48:18;;;;;;;9.10;8.07;;;12.90;99.90;;;;;;5030968;28;20214;-36
2021/05/31 04:50:43;;;;;;;11.73;8.07;;;12.90;99.90;;;;;;5031155;28;20919;-36
2021/05/31 04:53:10;;;;;;;9.90;8.80;;;13.00;99.90;;;;;;5036034;28;20225;-36
2021/05/31 04:55:37;;;;;;;13.47;9.90;;;13.00;99.90;;;;;;5041253;28;20789;-37
2021/05/31 04:58:03;;;;;;;11.13;9.37;;;13.20;99.90;;;;;;5041160;28;20416;-37
2021/05/31 05:00:29;;;;;;;10.40;9.30;;;13.20;99.90;;;;;;5027382;28;20641;-37
2021/05/31 05:02:55;;;;;;;14.70;9.97;;;13.30;99.90;;;;;;5033142;28;20507;-37
2021/05/31 05:05:21;;;;;;;11.40;9.07;;;13.50;99.90;;;;;;5032803;28;20519;-36
2021/05/31 05:07:47;;;;;;;10.70;9.50;;;13.60;99.90;;;;;;5027742;28;20452;-37
2021/05/31 05:10:22;;;;;;;11.40;9.93;;;13.70;99.90;;;;;;5036561;28;20444;-37
2021/05/31 05:12:52;;;;;;;12.50;10.00;;;13.80;99.90;;;;;;5034015;28;20569;-37
2021/05/31 05:15:19;;;;;;;11.30;9.63;;;13.90;99.90;;;;;;5048254;28;20435;-36
2021/05/31 05:17:45;;;;;;;11.37;9.70;;;14.10;99.90;;;;;;5047803;28;20420;-36
2021/05/31 05:20:13;;;;;;;11.50;10.30;;;14.20;99.90;;;;;;5029964;28;20429;-36
2021/05/31 05:22:39;;;;;;;11.53;9.13;;;14.20;99.90;;;;;;5036881;28;20424;-36
2021/05/31 05:25:06;;;;;;;11.90;9.40;;;14.30;99.90;;;;;;5043934;28;20966;-37
2021/05/31 05:27:31;;;;;;;10.93;9.83;;;14.40;99.90;;;;;;5040152;28;20958;-37
2021/05/31 05:29:57;;;;;;;10.97;9.03;;;14.50;99.90;;;;;;5029620;28;20436;-37
2021/05/31 05:32:23;;;;;;;10.93;9.23;;;14.50;99.90;;;;;;5028579;28;20649;-37
2021/05/31 05:34:50;;;;;;;14.70;10.10;;;14.50;99.90;;;;;;5041781;28;20213;-37
2021/05/31 05:37:29;;;;;;;13.30;9.70;;;14.60;99.90;;;;;;5027413;28;20221;-36
2021/05/31 05:40:25;;;;;;;10.70;8.43;;;14.70;99.90;;;;;;5028249;28;20739;-37
2021/05/31 05:43:03;;;;;;;9.90;8.80;;;14.90;99.90;;;;;;5040326;28;20436;-36
2021/05/31 05:45:46;;;;;;;9.20;8.07;;;15.10;99.90;;;;;;5031174;28;20447;-37
2021/05/31 05:48:12;;;;;;;12.07;9.23;;;15.20;99.90;;;;;;5032466;28;20478;-37
2021/05/31 05:50:38;;;;;;;10.67;8.50;;;15.40;99.90;;;;;;5032435;28;20429;-36
2021/05/31 05:53:03;;;;;;;11.57;8.20;;;15.50;99.90;;;;;;5028600;28;20674;-37
2021/05/31 05:55:29;;;;;;;10.93;8.30;;;15.70;99.90;;;;;;5036013;28;20190;-37
2021/05/31 05:57:55;;;;;;;8.60;7.70;;;15.80;99.90;;;;;;5033334;28;20711;-37
2021/05/31 06:00:23;;;;;;;8.30;7.50;;;15.90;99.90;;;;;;5044792;28;20308;-37
2021/05/31 06:02:49;;;;;;;8.70;7.80;;;16.00;99.90;;;;;;5033843;28;20767;-37
2021/05/31 06:05:15;;;;;;;10.10;8.10;;;16.10;99.90;;;;;;5039807;28;20809;-37
2021/05/31 06:07:41;;;;;;;11.13;8.43;;;16.30;99.90;;;;;;5039049;28;20453;-37
2021/05/31 06:10:08;;;;;;;8.13;7.17;;;16.40;99.90;;;;;;5027980;28;20194;-37
2021/05/31 06:12:34;;;;;;;9.37;7.70;;;16.50;99.90;;;;;;5036175;28;20920;-36
2021/05/31 06:15:00;;;;;;;8.60;7.70;;;16.70;99.90;;;;;;5043851;28;20499;-37
2021/05/31 06:17:26;;;;;;;10.90;8.03;;;16.90;99.90;;;;;;5040200;28;20196;-37
2021/05/31 06:19:51;;;;;;;9.77;7.50;;;17.00;99.90;;;;;;5039020;28;20786;-36
2021/05/31 06:22:17;;;;;;;9.90;8.90;;;17.10;99.90;;;;;;5042649;28;20194;-37
2021/05/31 06:24:44;;;;;;;10.00;8.27;;;17.30;99.90;;;;;;5039072;28;20201;-37
2021/05/31 06:27:10;;;;;;;9.43;7.47;;;17.30;99.90;;;;;;5037269;28;20521;-37
2021/05/31 06:29:36;;;;;;;12.30;7.93;;;17.40;99.90;;;;;;5037715;28;20468;-37
2021/05/31 06:32:02;;;;;;;9.10;7.40;;;17.40;99.90;;;;;;5037577;28;20466;-37
2021/05/31 06:34:28;;;;;;;8.53;7.07;;;17.50;99.90;;;;;;5040972;28;20217;-37
2021/05/31 06:36:54;;;;;;;11.83;7.67;;;17.70;99.90;;;;;;5043225;28;21202;-37
2021/05/31 06:39:21;;;;;;;10.07;7.07;;;17.90;99.90;;;;;;5014593;28;21021;-37
2021/05/31 06:41:48;;;;;;;7.93;6.73;;;18.00;99.90;;;;;;5037333;28;20800;-37
2021/05/31 06:44:14;;;;;;;10.27;8.87;;;18.20;99.90;;;;;;5042716;28;20429;-37
2021/05/31 06:46:40;;;;;;;8.27;7.40;;;18.30;99.90;;;;;;5018195;28;20479;-37
2021/05/31 06:49:06;;;;;;;12.13;7.33;;;18.50;99.90;;;;;;5031643;28;20201;-37
2021/05/31 06:51:32;;;;;;;9.13;8.20;;;18.50;99.90;;;;;;5041947;28;20578;-37
2021/05/31 06:53:58;;;;;;;8.30;7.47;;;18.60;99.90;;;;;;5039644;28;20475;-37
2021/05/31 06:56:24;;;;;;;8.93;7.33;;;18.70;99.90;;;;;;5035465;28;20555;-37
2021/05/31 06:58:50;;;;;;;10.97;7.20;;;18.80;99.90;;;;;;5037319;28;20187;-37
2021/05/31 07:01:17;;;;;;;7.30;6.70;;;18.90;99.90;;;;;;5031429;28;20591;-37
2021/05/31 07:03:43;;;;;;;8.47;7.10;;;19.10;99.90;;;;;;5025853;28;20433;-37
2021/05/31 07:06:09;;;;;;;8.53;7.10;;;19.10;99.90;;;;;;5036372;28;20637;-37
2021/05/31 07:08:34;;;;;;;7.20;6.50;;;19.10;99.90;;;;;;5034812;28;20768;-37
2021/05/31 07:11:05;;;;;;;8.00;6.23;;;19.10;99.90;;;;;;5035492;28;20743;-37
2021/05/31 07:13:30;;;;;;;10.00;6.77;;;19.30;99.90;;;;;;5037509;28;20256;-37
2021/05/31 07:15:58;;;;;;;8.30;7.23;;;19.40;99.90;;;;;;5047940;28;20855;-37
2021/05/31 07:18:24;;;;;;;7.70;6.90;;;19.50;99.80;;;;;;5029738;28;20977;-37
2021/05/31 07:20:52;;;;;;;9.67;6.93;;;19.70;99.90;;;;;;5029644;28;20449;-37
2021/05/31 07:23:18;;;;;;;9.97;6.83;;;19.70;99.30;;;;;;5026172;28;20421;-37
2021/05/31 07:25:44;;;;;;;6.47;5.87;;;19.80;99.30;;;;;;5023621;28;20468;-37
2021/05/31 07:28:10;;;;;;;9.90;6.53;;;19.90;99.70;;;;;;5037622;28;20525;-37
2021/05/31 07:30:36;;;;;;;7.23;6.50;;;20.00;99.40;;;;;;5040533;28;20464;-37
2021/05/31 07:33:02;;;;;;;9.90;6.47;;;20.00;99.60;;;;;;5026563;28;20220;-37
2021/05/31 07:35:28;;;;;;;10.40;8.10;;;20.10;98.80;;;;;;5036696;28;20531;-37
2021/05/31 07:37:54;;;;;;;9.03;8.00;;;20.10;98.70;;;;;;5028463;28;20420;-37
2021/05/31 07:40:20;;;;;;;7.37;6.63;;;20.20;98.60;;;;;;5025959;28;20421;-37
2021/05/31 07:42:46;;;;;;;7.63;5.80;;;20.30;99.50;;;;;;5037749;28;20193;-37
2021/05/31 07:45:14;;;;;;;7.40;6.47;;;20.40;99.30;;;;;;5038434;28;20671;-37
2021/05/31 07:47:39;;;;;;;10.10;7.30;;;20.40;99.00;;;;;;5025240;28;20433;-37
2021/05/31 07:50:07;;;;;;;8.10;6.20;;;20.30;99.20;;;;;;5030255;28;20431;-37
2021/05/31 07:52:33;;;;;;;6.93;6.23;;;20.30;98.90;;;;;;5026751;28;20225;-38
2021/05/31 07:54:59;;;;;;;13.03;6.50;;;20.30;98.80;;;;;;5041059;28;20919;-37
2021/05/31 07:57:25;;;;;;;9.93;6.80;;;20.20;99.00;;;;;;5034932;28;20458;-37
2021/05/31 07:59:52;;;;;;;11.80;7.33;;;20.30;98.90;;;;;;5034117;28;20621;-37
2021/05/31 08:02:19;;;;;;;12.17;6.70;;;20.30;98.50;;;;;;5040257;28;20433;-37
2021/05/31 08:04:45;;;;;;;6.47;5.87;;;20.30;98.50;;;;;;5028086;28;20688;-37
2021/05/31 08:07:11;;;;;;;6.00;5.50;;;20.20;98.20;;;;;;5027693;28;20457;-36
2021/05/31 08:09:38;;;;;;;5.93;5.33;;;20.30;97.00;;;;;;5025607;28;20436;-36
2021/05/31 08:12:04;;;;;;;8.83;6.03;;;20.20;96.80;;;;;;5026143;28;20921;-37
2021/05/31 08:14:30;;;;;;;6.77;5.60;;;20.10;97.20;;;;;;5030161;28;20468;-36
2021/05/31 08:16:56;;;;;;;7.93;6.47;;;20.00;97.90;;;;;;5026628;28;20453;-37
2021/05/31 08:19:25;;;;;;;11.20;7.50;;;20.00;98.20;;;;;;5024204;28;20194;-37
2021/05/31 08:21:51;;;;;;;7.50;6.70;;;20.00;98.90;;;;;;5036980;28;20190;-37
2021/05/31 08:24:19;;;;;;;11.50;7.50;;;20.00;98.80;;;;;;5024401;28;20421;-37
2021/05/31 08:26:45;;;;;;;10.90;7.70;;;20.00;98.90;;;;;;5025885;28;20425;-37
2021/05/31 08:29:11;;;;;;;10.70;8.00;;;20.10;99.40;;;;;;5034664;28;20436;-37
2021/05/31 08:31:37;;;;;;;8.20;7.03;;;20.20;99.20;;;;;;5021617;28;20763;-37
2021/05/31 08:34:03;;;;;;;11.00;8.23;;;20.20;98.40;;;;;;5016898;28;20472;-37
2021/05/31 08:36:29;;;;;;;9.17;8.13;;;20.30;98.60;;;;;;5037879;28;20198;-37
2021/05/31 08:38:58;;;;;;;10.33;7.90;;;20.50;98.40;;;;;;5025618;28;20583;-37
2021/05/31 08:41:28;;;;;;;10.73;7.43;;;20.60;97.90;;;;;;5026143;28;20629;-37
2021/05/31 08:43:54;;;;;;;10.03;7.10;;;20.70;97.40;;;;;;5029574;28;20444;-37
2021/05/31 08:46:20;;;;;;;12.10;7.60;;;20.80;97.70;;;;;;5028112;28;20468;-37
2021/05/31 08:48:46;;;;;;;12.83;8.30;;;20.80;96.50;;;;;;5027653;28;20894;-37
2021/05/31 08:51:13;;;;;;;11.73;7.90;;;20.80;97.00;;;;;;5032247;28;20436;-37
2021/05/31 08:53:42;;;;;;;12.20;8.00;;;20.90;97.20;;;;;;5036526;28;20465;-37
2021/05/31 08:56:08;;;;;;;11.40;8.80;;;21.00;98.00;;;;;;5028508;28;20408;-37
2021/05/31 08:58:34;;;;;;;11.50;7.30;;;21.10;98.20;;;;;;5037101;28;20788;-37
2021/05/31 09:01:00;;;;;;;9.53;7.30;;;21.30;97.10;;;;;;5017913;28;20185;-37
2021/05/31 09:03:25;;;;;;;12.00;7.60;;;21.40;97.10;;;;;;5036543;28;20427;-37
2021/05/31 09:05:57;;;;;;;9.20;6.70;;;21.50;97.10;;;;;;5045779;28;20189;-36
2021/05/31 09:08:23;;;;;;;7.77;6.90;;;21.60;95.30;;;;;;5027802;28;20213;-37
2021/05/31 09:10:56;;;;;;;10.17;7.30;;;21.70;95.30;;;;;;5027666;28;20919;-37
2021/05/31 09:13:31;;;;;;;8.60;6.80;;;21.80;96.00;;;;;;5030380;28;20826;-37
2021/05/31 09:16:13;;;;;;;8.03;6.40;;;21.70;95.70;;;;;;5044203;28;20420;-37
2021/05/31 09:18:50;;;;;;;8.13;6.67;;;21.80;94.50;;;;;;5038137;28;20770;-37
2021/05/31 09:21:29;;;;;;;10.10;6.10;;;21.90;93.70;;;;;;5027708;28;20425;-37
2021/05/31 09:24:06;;;;;;;7.77;5.70;;;22.00;94.30;;;;;;5036076;28;20459;-36
2021/05/31 09:26:56;;;;;;;7.07;6.40;;;22.10;93.50;;;;;;5036608;28;20431;-37
2021/05/31 09:29:21;;;;;;;7.07;6.23;;;22.10;94.40;;;;;;5037565;28;20788;-37
2021/05/31 09:32:07;;;;;;;9.23;5.93;;;22.20;93.50;;;;;;5037076;28;20427;-36
2021/05/31 09:34:33;;;;;;;6.67;5.73;;;22.30;93.80;;;;;;5040923;28;20206;-37
2021/05/31 09:37:04;;;;;;;6.47;5.97;;;22.30;93.20;;;;;;5038219;28;20428;-37
2021/05/31 09:39:40;;;;;;;7.83;6.57;;;22.40;92.90;;;;;;5028331;28;20516;-37
2021/05/31 09:42:11;;;;;;;9.30;6.80;;;22.50;94.50;;;;;;5031790;28;20473;-37
2021/05/31 09:44:37;;;;;;;7.07;5.70;;;22.60;92.80;;;;;;5043820;28;20472;-37
2021/05/31 09:47:03;;;;;;;7.23;5.80;;;22.70;92.60;;;;;;5041654;28;20943;-37
2021/05/31 09:49:29;;;;;;;7.70;6.50;;;22.70;92.50;;;;;;5031981;28;20252;-37
2021/05/31 09:51:58;;;;;;;7.93;6.40;;;22.80;92.30;;;;;;5029009;28;20436;-37
2021/05/31 09:54:32;;;;;;;8.10;7.30;;;22.80;92.80;;;;;;5029098;28;20191;-37
2021/05/31 09:56:59;;;;;;;8.00;6.50;;;22.80;91.50;;;;;;5026928;28;20955;-38
2021/05/31 09:59:28;;;;;;;7.93;6.40;;;22.90;93.20;;;;;;5043636;28;20417;-37
2021/05/31 10:01:57;;;;;;;7.47;6.00;;;23.00;92.10;;;;;;5036102;28;20458;-37
2021/05/31 10:07:00;;;;;;;9.20;6.77;;;23.20;90.70;;;;;;5033909;28;20455;-37
2021/05/31 10:09:28;;;;;;;6.20;5.60;;;23.30;90.60;;;;;;5037645;28;20829;-37
2021/05/31 10:11:54;;;;;;;6.33;5.77;;;23.30;88.00;;;;;;5038937;28;20421;-37
2021/05/31 10:14:20;;;;;;;7.50;6.90;;;23.10;89.80;;;;;;5036122;28;20428;-37
2021/05/31 10:16:47;;;;;;;8.70;7.13;;;23.10;92.00;;;;;;5039556;28;20442;-37
2021/05/31 10:19:13;;;;;;;7.70;7.00;;;23.20;92.20;;;;;;5037731;28;20436;-37
2021/05/31 10:21:39;;;;;;;8.93;6.10;;;23.30;92.80;;;;;;5027851;28;21033;-37
2021/05/31 10:24:05;;;;;;;6.50;5.60;;;23.50;93.20;;;;;;5035497;28;20643;-37
2021/05/31 10:26:32;;;;;;;7.50;5.50;;;23.50;91.60;;;;;;5028665;28;20221;-37
2021/05/31 10:29:00;;;;;;;6.27;5.67;;;23.50;88.50;;;;;;5019358;28;20440;-37
2021/05/31 10:31:27;;;;;;;9.20;5.50;;;23.30;86.30;;;;;;5042183;28;20443;-37
2021/05/31 10:34:00;;;;;;;5.87;5.27;;;23.20;88.90;;;;;;5041918;28;21039;-37
2021/05/31 10:36:32;;;;;;;5.50;5.00;;;23.00;87.40;;;;;;5028284;28;20864;-37
2021/05/31 10:39:02;;;;;;;5.03;4.33;;;23.00;85.20;;;;;;5039388;28;20419;-37
2021/05/31 10:41:31;;;;;;;6.23;4.67;;;23.00;84.60;;;;;;5027585;28;20552;-37
2021/05/31 10:43:59;;;;;;;5.33;4.80;;;23.10;88.60;;;;;;5026238;28;20429;-37
2021/05/31 10:46:32;;;;;;;6.67;4.80;;;23.20;84.00;;;;;;5032188;28;20487;-37
2021/05/31 10:49:00;;;;;;;5.60;4.57;;;23.20;84.40;;;;;;5037190;28;20448;-37
2021/05/31 10:51:31;;;;;;;5.00;4.53;;;23.30;84.30;;;;;;5026164;28;20552;-37
2021/05/31 10:54:08;;;;;;;5.30;4.67;;;23.40;83.30;;;;;;5035275;28;20469;-37
2021/05/31 10:56:33;;;;;;;5.33;4.33;;;23.50;86.40;;;;;;5027494;28;20504;-37
2021/05/31 10:59:00;;;;;;;5.63;4.93;;;23.60;83.30;;;;;;5025351;28;20504;-37
2021/05/31 11:01:26;;;;;;;5.63;5.13;;;23.50;81.40;;;;;;5038050;28;20420;-38
2021/05/31 11:04:04;;;;;;;7.40;5.20;;;23.50;84.90;;;;;;5040158;28;20712;-37
2021/05/31 11:06:36;;;;;;;5.23;4.73;;;23.50;82.10;;;;;;5034044;28;20274;-37
2021/05/31 11:09:06;;;;;;;4.53;4.13;;;23.40;84.10;;;;;;5029758;28;20455;-37
2021/05/31 11:11:48;;;;;;;5.17;4.67;;;23.20;81.80;;;;;;5026779;28;20433;-37
2021/05/31 11:14:15;;;;;;;5.23;4.73;;;23.20;84.50;;;;;;5036094;28;20479;-37
2021/05/31 11:16:56;;;;;;;5.77;5.17;;;23.30;82.60;;;;;;5030045;28;20445;-37
2021/05/31 11:19:37;;;;;;;6.67;5.37;;;23.20;85.10;;;;;;5031521;28;20511;-37
2021/05/31 11:22:17;;;;;;;7.60;5.73;;;23.10;83.60;;;;;;5033999;28;20416;-37
2021/05/31 11:24:52;;;;;;;5.33;4.83;;;23.20;85.70;;;;;;5041336;28;20428;-37
2021/05/31 11:27:27;;;;;;;7.27;5.20;;;23.40;87.50;;;;;;5027115;28;20791;-37
2021/05/31 11:29:52;;;;;;;6.37;5.50;;;23.50;81.60;;;;;;5027499;28;20914;-37
2021/05/31 11:32:19;;;;;;;6.67;5.20;;;23.50;81.80;;;;;;5033396;28;20472;-37
2021/05/31 11:35:03;;;;;;;6.17;5.57;;;23.30;84.20;;;;;;5030657;28;20717;-37
2021/05/31 11:37:30;;;;;;;5.83;5.10;;;23.40;84.40;;;;;;5026339;28;20429;-37
2021/05/31 11:39:56;;;;;;;6.33;5.70;;;23.40;86.90;;;;;;5034759;28;20468;-37
2021/05/31 11:42:23;;;;;;;6.90;5.00;;;23.60;83.80;;;;;;5025262;28;20516;-37
2021/05/31 11:44:54;;;;;;;6.33;5.50;;;23.80;87.30;;;;;;5026065;28;20417;-37
2021/05/31 11:47:30;;;;;;;7.13;5.07;;;23.80;80.80;;;;;;5038501;28;20884;-37
2021/05/31 11:49:56;;;;;;;7.50;5.27;;;23.70;80.50;;;;;;5038766;28;20787;-37
2021/05/31 11:52:28;;;;;;;7.30;5.60;;;23.60;81.60;;;;;;5028883;28;20472;-37
2021/05/31 11:54:55;;;;;;;5.77;5.23;;;23.60;77.80;;;;;;5030837;28;20435;-37
2021/05/31 11:57:21;;;;;;;5.80;5.13;;;23.60;82.80;;;;;;5026119;28;20428;-37
2021/05/31 11:59:51;;;;;;;8.03;5.97;;;23.60;81.70;;;;;;5025811;28;20430;-37
2021/05/31 12:02:19;;;;;;;6.80;6.20;;;23.60;83.50;;;;;;5038820;28;20623;-37
2021/05/31 12:04:50;;;;;;;9.20;6.67;;;23.60;85.00;;;;;;5040409;28;20431;-37
2021/05/31 12:07:22;;;;;;;6.20;5.60;;;23.70;86.30;;;;;;5026467;28;20793;-37
2021/05/31 12:09:48;;;;;;;8.40;7.50;;;23.80;87.30;;;;;;5036550;28;20428;-37
2021/05/31 12:12:22;;;;;;;7.00;6.30;;;23.80;81.40;;;;;;5026341;28;20531;-37
2021/05/31 12:14:53;;;;;;;7.80;6.13;;;23.90;85.60;;;;;;5040127;28;20528;-37
2021/05/31 12:17:21;;;;;;;6.00;5.40;;;23.70;81.90;;;;;;5035748;28;20782;-37
2021/05/31 12:19:49;;;;;;;5.90;5.30;;;23.50;79.60;;;;;;5032631;28;20839;-38
2021/05/31 12:22:16;;;;;;;7.80;6.40;;;23.20;81.50;;;;;;5026407;28;20961;-37
2021/05/31 12:24:47;;;;;;;7.20;5.80;;;23.20;82.20;;;;;;5025071;28;20472;-37
2021/05/31 12:27:14;;;;;;;6.80;6.10;;;23.20;82.50;;;;;;5030029;28;20510;-37
2021/05/31 12:29:47;;;;;;;5.93;5.40;;;23.20;82.70;;;;;;5029039;28;20429;-37
2021/05/31 12:32:15;;;;;;;8.07;6.23;;;23.40;84.90;;;;;;5042287;28;20953;-37
2021/05/31 12:34:41;;;;;;;7.30;6.60;;;23.50;82.50;;;;;;5040034;28;20436;-37
2021/05/31 12:37:15;;;;;;;6.30;5.70;;;23.40;81.70;;;;;;5039195;28;20508;-37
2021/05/31 12:39:52;;;;;;;5.23;4.73;;;23.40;85.80;;;;;;5032336;28;20428;-37
2021/05/31 12:42:29;;;;;;;6.17;5.60;;;23.50;82.90;;;;;;5029683;28;20523;-37
2021/05/31 12:45:24;;;;;;;5.27;4.80;;;23.50;81.30;;;;;;5028580;28;20860;-37
2021/05/31 12:47:51;;;;;;;5.17;4.67;;;23.70;81.30;;;;;;5029968;28;20595;-37
2021/05/31 12:50:30;;;;;;;5.40;4.13;;;23.70;75.90;;;;;;5038061;28;20459;-37
2021/05/31 12:53:03;;;;;;;4.87;4.47;;;23.70;76.80;;;;;;5035923;28;20471;-37
2021/05/31 12:55:30;;;;;;;4.63;4.23;;;23.70;78.50;;;;;;5047469;28;20432;-37